x

Tillamook, Or - 85 Nm Wnw Of Tillamook, Or (46089) Wave Buoy

7:50pm - Thu 11th Feb 2016 All times are PST. -8 hours from GMT.

  • Sig Wave height 13.4ft
  • Swell Direction
  • Peak Period 17s
  • Average Period 10s
  • Wind
    18mph, 22mph gusts
  • Sea Temp 50°f
  • Air Temp 52°f
  • Sea Pressure 1016.1mb
  • Tillamook, Or - 85 Nm Wnw Of Tillamook, Or
  • Tillamook, Or - 85 Nm Wnw Of Tillamook, Or

More Historic Weather Station data

Upgrade to MSW Pro to gain access to the past 30 days of data for over 8000 Wavebouys and Weather Stations around the globe.

Join Pro

Comparision Forecast

View Surf forecast
   
Thu 02/11 7:50pm 13.5ft 17s 10s 18 22 mph 1016.1mb 50f 52f
6:50pm 15ft 19s 10s 16 20 mph 1016.1mb 50f 52f
5:50pm 13ft 19s 9s 18 22 mph 1015.8mb 50f 52f
4:50pm 12ft 19s 9s 18 22 mph 1015.9mb 50f 53f
3:50pm 14.5ft 19s 10s 22 27 mph 1015.6mb 50f 53f
2:50pm 14ft 19s 10s 20 22 mph 1015.4mb 50f 53f
1:50pm 12.5ft 19s 9s 20 25 mph 1015.6mb 50f 53f
12:50pm 11ft 19s 9s 20 27 mph 1016.2mb 50f 52f
11:50am 10ft 14s 9s 20 25 mph 1016.5mb 50f 52f
10:50am 10.5ft 19s 9s 18 22 mph 1016.7mb 50f 52f
9:50am 10ft 19s 8s 20 22 mph 1016.7mb 50f 52f
8:50am 10.5ft 19s 9s 20 22 mph 1016.5mb 50f 53f
7:50am 11ft 19s 10s 20 25 mph 1016.5mb 50f 53f
3:50am 11.5ft 21s 10s 9 11 mph 1019.7mb 50f 51f
2:50am 11ft 21s 9s 9 13 mph 1020.6mb 50f 51f
1:50am 10ft 21s 9s 11 16 mph 1020.6mb 50f 51f
12:50am 9ft 9s 8s 13 16 mph 1021mb 50f 51f
Wed 02/10 11:50pm 9ft 11s 8s 11 13 mph 1021.6mb 50f 51f
10:50pm 8.5ft 11s 8s 11 16 mph 1022.4mb 50f 51f
9:50pm 7.5ft 11s 7s 9 11 mph 1023.1mb 50f 51f
8:50pm 8ft 11s 8s 7 9 mph 1023.6mb 50f 51f
7:50pm 7ft 11s 7s 7 9 mph 1024.4mb 50f 51f
6:50pm 7.5ft 11s 7s 9 11 mph 1024.6mb 50f 51f
5:50pm 8ft 8s 7s 7 9 mph 1024.5mb 50f 51f
4:50pm 8ft 11s 7s 7 9 mph 1024mb 50f 51f
3:50pm 8ft 10s 7s 11 13 mph 1023.8mb 50f 51f
2:50pm 8.5ft 11s 7s 13 16 mph 1023mb 50f 52f
1:50pm 7.5ft 9s 6s 16 20 mph 1022.5mb 50f 53f
12:50pm 9ft 8s 6s 18 22 mph 1021.5mb 50f 53f
11:50am 8.5ft 10s 6s 22 27 mph 1021.1mb 50f 53f
10:50am 8ft 10s 6s 22 27 mph 1019.9mb 50f 52f
9:50am 8ft 11s 6s 25 29 mph 1019.1mb 50f 52f
8:50am 7ft 11s 6s 25 29 mph 1018.3mb 50f 52f
7:50am 7.5ft 10s 6s 22 27 mph 1017.6mb 50f 52f
6:50am 7ft 11s 6s 22 25 mph 1017.2mb 50f 51f
5:50am 7ft 11s 6s 20 25 mph 1017.5mb 50f 51f
4:50am 7ft 11s 7s 20 25 mph 1017mb 50f 51f
3:50am 6ft 11s 7s 18 20 mph 1017mb 50f 51f
2:50am 7ft 11s 7s 16 20 mph 1017.1mb 50f 51f
1:50am 6ft 12s 7s 13 18 mph 1017.1mb 50f 51f
12:50am 6ft 13s 7s 11 13 mph 1017.5mb 50f 51f
Tue 02/09 11:50pm 6ft 12s 7s 13 16 mph 1018.4mb 50f 51f
10:50pm 6ft 12s 7s 11 13 mph 1018.3mb 50f 51f
9:50pm 6.5ft 13s 7s 18 20 mph 1018.4mb 50f 51f
8:50pm 7ft 13s 7s 16 20 mph 1018.3mb 50f 51f
7:50pm 7ft 11s 7s 16 20 mph 1018.3mb 50f 51f
6:50pm 7ft 11s 8s 13 16 mph 1018.5mb 50f 51f
5:50pm 7.5ft 11s 8s 11 13 mph 1017.8mb 50f 51f
4:50pm 8ft 12s 8s 11 13 mph 1018.1mb 50f 51f
3:50pm 8ft 12s 8s 11 13 mph 1018.4mb 50f 52f
2:50pm 8ft 12s 8s 18 22 mph 1017.9mb 50f 52f
1:50pm 8ft 12s 7s 18 20 mph 1017.2mb 50f 53f
12:50pm 8ft 12s 8s 18 20 mph 1017.8mb 50f 53f
11:50am 7.5ft 13s 8s 18 20 mph 1017.5mb 50f 54f
10:50am 7.5ft 13s 8s 18 20 mph 1017.9mb 50f 54f
9:50am 7ft 14s 8s 18 20 mph 1017.8mb 50f 54f
8:50am 7ft 13s 8s 16 18 mph 1017.7mb 50f 53f
7:50am 7ft 14s 9s 13 18 mph 1017.9mb 50f 53f
6:50am 8ft 15s 10s 13 16 mph 1018.1mb 50f 53f
5:50am 8ft 15s 10s 11 13 mph 1018.1mb 50f 52f
4:50am 8.5ft 15s 9s 9 11 mph 1018.2mb 50f 52f
3:50am 9ft 15s 9s 11 16 mph 1018mb 50f 53f
2:50am 9ft 14s 9s 16
mph
1018.6mb 50f 53f
1:50am 10ft 14s 10s 13 16 mph 1019mb 50f 53f
12:50am 11ft 15s 11s 13 16 mph 1018.9mb 50f 53f
Mon 02/08 11:50pm 11.5ft 14s 11s 11 16 mph 1019.3mb 50f 54f
10:50pm 10ft 13s 10s 9 13 mph 1019.8mb 50f 53f
9:50pm 10ft 14s 10s 11 13 mph 1020.3mb 50f 53f
8:50pm 9.5ft 14s 10s 11 16 mph 1020.4mb 50f 53f
7:50pm 10.5ft 14s 11s 11 16 mph 1020.6mb 50f 53f
6:50pm 11ft 14s 11s 11 13 mph 1021.2mb 50f 53f
5:50pm 10ft 15s 11s 11 16 mph 1021.3mb 51f 53f
4:50pm 9.5ft 15s 11s 9 13 mph 1022mb 51f 53f
3:50pm 9.5ft 15s 11s 9 13 mph 1022.6mb 51f 53f
2:50pm 9ft 16s 11s 11 16 mph 1022.9mb 51f 53f
1:50pm 9ft 15s 11s 11 16 mph 1023.7mb 51f 53f
12:50pm 9ft 16s 11s 9 13 mph 1024.9mb 50f 52f
11:50am 9.5ft 16s 11s 11 16 mph 1025.9mb 50f 52f
10:50am 10ft 16s 11s 11 13 mph 1026.7mb 50f 52f
9:50am 10ft 16s 12s 9 13 mph 1026.9mb 50f 52f
8:50am 9ft 16s 12s 9 13 mph 1027mb 50f 52f
7:50am 11ft 17s 13s 9 11 mph 1027.2mb 50f 51f
6:50am 10.5ft 17s 12s 7 11 mph 1027.3mb 50f 51f
5:50am 12ft 16s 13s 7 11 mph 1027.5mb 50f 51f
4:50am 12.5ft 17s 13s 7 11 mph 1027.5mb 50f 51f